Time;durP1;ratioP1;P1;durP2;ratioP2;P2;SDS_P1;SDS_P2;PMS_P1;PMS_P2;Temp;Humidity;BMP_temperature;BMP_pressure;BME280_temperature;BME280_humidity;BME280_pressure;Samples;Min_cycle;Max_cycle;Signal;HPM_P1;HPM_P2
2022/01/07 00:00:22;;;;;;;;;;;;;;;;;;4989482;28;19926;-75
2022/01/07 00:02:49;;;;;;;;;;;;;;;;;;4992178;28;19926;-74
2022/01/07 00:05:16;;;;;;;;;;;;;;;;;;4986025;28;19932;-74
2022/01/07 00:07:43;;;;;;;;;;;;;;;;;;4993430;28;20016;-75
2022/01/07 00:10:10;;;;;;;;;;;;;;;;;;4982865;28;20032;-75
2022/01/07 00:12:37;;;;;;;;;;;;;;;;;;4989962;28;20008;-75
2022/01/07 00:15:04;;;;;;;;;;;;;;;;;;4992603;28;20013;-73
2022/01/07 00:17:31;;;;;;;;;;;;;;;;;;4993970;28;19926;-74
2022/01/07 00:19:59;;;;;;;;;;;;;;;;;;4995208;28;20503;-76
2022/01/07 00:22:26;;;;;;;;;;;;;;;;;;4993768;28;19932;-75
2022/01/07 00:24:53;;;;;;;;;;;;;;;;;;4987686;28;19968;-74
2022/01/07 00:27:20;;;;;;;;;;;;;;;;;;4990432;28;19929;-74
2022/01/07 00:29:47;;;;;;;;;;;;;;;;;;4987718;28;19934;-76
2022/01/07 00:32:14;;;;;;;;;;;;;;;;;;4989479;28;20000;-75
2022/01/07 00:34:41;;;;;;;;;;;;;;;;;;4983560;28;19929;-76
2022/01/07 00:37:08;;;;;;;;;;;;;;;;;;4991678;28;20347;-75
2022/01/07 00:39:38;;;;;;;;;;;;;;;;;;4995338;28;19961;-75
2022/01/07 00:42:05;;;;;;;;;;;;;;;;;;4992589;28;20000;-75
2022/01/07 00:44:32;;;;;;;;;;;;;;;;;;4990435;28;20466;-74
2022/01/07 00:46:58;;;;;;;;;;;;;;;;;;4992803;28;20339;-75
2022/01/07 00:49:25;;;;;;;;;;;;;;;;;;4992864;28;19932;-73
2022/01/07 00:51:52;;;;;;;;;;;;;;;;;;4993813;28;19925;-74
2022/01/07 00:54:20;;;;;;;;;;;;;;;;;;4990556;28;19944;-75
2022/01/07 00:56:47;;;;;;;;;;;;;;;;;;4989136;28;20373;-74
2022/01/07 00:59:14;;;;;;;;;;;;;;;;;;4991437;28;19955;-75
2022/01/07 01:01:41;;;;;;;;;;;;;;;;;;4981740;28;20025;-75
2022/01/07 01:04:08;;;;;;;;;;;;;;;;;;4994315;28;20021;-74
2022/01/07 01:06:35;;;;;;;;;;;;;;;;;;4990957;28;20337;-74
2022/01/07 01:09:02;;;;;;;;;;;;;;;;;;4992470;28;20294;-74
2022/01/07 01:11:29;;;;;;;;;;;;;;;;;;4983367;28;20005;-77
2022/01/07 01:13:56;;;;;;;;;;;;;;;;;;4990094;28;19981;-73
2022/01/07 01:16:23;;;;;;;;;;;;;;;;;;4991233;28;19956;-76
2022/01/07 01:18:50;;;;;;;;;;;;;;;;;;4993284;28;21530;-73
2022/01/07 01:21:17;;;;;;;;;;;;;;;;;;4988579;28;19961;-75
2022/01/07 01:23:45;;;;;;;;;;;;;;;;;;4993464;28;20005;-74
2022/01/07 01:26:12;;;;;;;;;;;;;;;;;;4986813;28;19926;-75
2022/01/07 01:28:39;;;;;;;;;;;;;;;;;;4992639;28;19925;-74
2022/01/07 01:31:06;;;;;;;;;;;;;;;;;;4992456;28;20004;-74
2022/01/07 01:33:33;;;;;;;;;;;;;;;;;;4991033;28;19953;-73
2022/01/07 01:36:00;;;;;;;;;;;;;;;;;;4984020;28;20601;-75
2022/01/07 01:38:30;;;;;;;;;;;;;;;;;;4994285;28;20399;-74
2022/01/07 01:40:57;;;;;;;;;;;;;;;;;;4985093;28;19926;-75
2022/01/07 01:43:24;;;;;;;;;;;;;;;;;;4992212;28;20016;-74
2022/01/07 01:45:51;;;;;;;;;;;;;;;;;;4990758;28;19932;-75
2022/01/07 01:48:19;;;;;;;;;;;;;;;;;;4996345;28;20020;-74
2022/01/07 01:50:45;;;;;;;;;;;;;;;;;;4989339;28;19926;-74
2022/01/07 01:53:12;;;;;;;;;;;;;;;;;;4994359;28;19932;-74
2022/01/07 01:55:39;;;;;;;;;;;;;;;;;;4990340;28;19930;-75
2022/01/07 01:58:06;;;;;;;;;;;;;;;;;;4994570;28;19932;-74
2022/01/07 02:00:33;;;;;;;;;;;;;;;;;;4991538;28;20274;-75
2022/01/07 02:03:00;;;;;;;;;;;;;;;;;;4993135;28;19948;-74
2022/01/07 02:05:27;;;;;;;;;;;;;;;;;;4984109;28;20324;-75
2022/01/07 02:07:54;;;;;;;;;;;;;;;;;;4994275;28;20411;-74
2022/01/07 02:10:21;;;;;;;;;;;;;;;;;;4990794;28;20459;-74
2022/01/07 02:12:48;;;;;;;;;;;;;;;;;;4989508;28;19927;-75
2022/01/07 02:15:15;;;;;;;;;;;;;;;;;;4989291;28;19932;-74
2022/01/07 02:17:42;;;;;;;;;;;;;;;;;;4997341;28;19926;-74
2022/01/07 02:20:09;;;;;;;;;;;;;;;;;;4985771;28;19926;-74
2022/01/07 02:22:36;;;;;;;;;;;;;;;;;;4991366;28;19926;-74
2022/01/07 02:25:03;;;;;;;;;;;;;;;;;;4988440;28;19926;-75
2022/01/07 02:27:30;;;;;;;;;;;;;;;;;;4986021;28;20016;-76
2022/01/07 02:29:58;;;;;;;;;;;;;;;;;;4990487;28;19936;-75
2022/01/07 02:32:25;;;;;;;;;;;;;;;;;;4993780;28;19929;-75
2022/01/07 02:34:51;;;;;;;;;;;;;;;;;;4987604;28;20293;-78
2022/01/07 02:37:18;;;;;;;;;;;;;;;;;;4990837;28;19981;-76
2022/01/07 02:39:46;;;;;;;;;;;;;;;;;;4985641;28;19932;-76
2022/01/07 02:42:13;;;;;;;;;;;;;;;;;;4990167;28;19956;-76
2022/01/07 02:44:40;;;;;;;;;;;;;;;;;;4990249;28;19926;-74
2022/01/07 02:47:07;;;;;;;;;;;;;;;;;;4990774;28;19925;-74
2022/01/07 02:49:34;;;;;;;;;;;;;;;;;;4991643;28;20020;-74
2022/01/07 02:52:01;;;;;;;;;;;;;;;;;;4993911;28;20020;-74
2022/01/07 02:54:27;;;;;;;;;;;;;;;;;;4990212;28;19944;-75
2022/01/07 02:56:54;;;;;;;;;;;;;;;;;;4988579;28;19933;-75
2022/01/07 02:59:21;;;;;;;;;;;;;;;;;;4985970;28;19926;-76
2022/01/07 03:01:48;;;;;;;;;;;;;;;;;;4989901;28;20296;-75
2022/01/07 03:04:17;;;;;;;;;;;;;;;;;;4988860;28;20638;-75
2022/01/07 03:06:44;;;;;;;;;;;;;;;;;;4989689;28;19932;-75
2022/01/07 03:09:11;;;;;;;;;;;;;;;;;;4985891;28;19925;-76
2022/01/07 03:11:38;;;;;;;;;;;;;;;;;;4990136;28;19925;-76
2022/01/07 03:14:05;;;;;;;;;;;;;;;;;;4990641;28;20004;-76
2022/01/07 03:16:32;;;;;;;;;;;;;;;;;;4990363;28;19932;-76
2022/01/07 03:18:59;;;;;;;;;;;;;;;;;;4990396;28;19936;-77
2022/01/07 03:21:26;;;;;;;;;;;;;;;;;;4987835;28;19932;-76
2022/01/07 03:23:53;;;;;;;;;;;;;;;;;;4990414;28;19980;-76
2022/01/07 03:26:20;;;;;;;;;;;;;;;;;;4985900;28;20025;-76
2022/01/07 03:28:47;;;;;;;;;;;;;;;;;;4990360;28;19936;-76
2022/01/07 03:31:14;;;;;;;;;;;;;;;;;;4988942;28;20282;-76
2022/01/07 03:33:41;;;;;;;;;;;;;;;;;;4991605;28;20383;-77
2022/01/07 03:36:08;;;;;;;;;;;;;;;;;;4987435;28;19925;-75
2022/01/07 03:38:35;;;;;;;;;;;;;;;;;;4992202;28;20012;-74
2022/01/07 03:41:02;;;;;;;;;;;;;;;;;;4984352;28;19985;-75
2022/01/07 03:43:29;;;;;;;;;;;;;;;;;;4983665;28;19926;-76
2022/01/07 03:45:56;;;;;;;;;;;;;;;;;;4987149;28;19925;-75
2022/01/07 03:48:23;;;;;;;;;;;;;;;;;;4990866;28;19934;-76
2022/01/07 03:50:50;;;;;;;;;;;;;;;;;;4989901;28;19948;-76
2022/01/07 03:53:17;;;;;;;;;;;;;;;;;;4995336;28;20384;-76
2022/01/07 03:55:44;;;;;;;;;;;;;;;;;;4990536;28;19944;-75
2022/01/07 03:58:11;;;;;;;;;;;;;;;;;;4995001;28;19932;-75
2022/01/07 04:00:38;;;;;;;;;;;;;;;;;;4993002;28;19930;-75
2022/01/07 04:03:05;;;;;;;;;;;;;;;;;;4996242;28;20020;-75
2022/01/07 04:05:32;;;;;;;;;;;;;;;;;;4991593;28;19965;-74
2022/01/07 04:07:59;;;;;;;;;;;;;;;;;;4995874;28;19981;-73
2022/01/07 04:10:26;;;;;;;;;;;;;;;;;;4986546;28;19930;-76
2022/01/07 04:12:53;;;;;;;;;;;;;;;;;;4996072;28;19976;-75
2022/01/07 04:15:21;;;;;;;;;;;;;;;;;;4990904;28;19932;-75
2022/01/07 04:17:48;;;;;;;;;;;;;;;;;;4989839;28;20016;-74
2022/01/07 04:20:15;;;;;;;;;;;;;;;;;;4990078;28;20436;-75
2022/01/07 04:22:42;;;;;;;;;;;;;;;;;;4995791;28;19933;-75
2022/01/07 04:25:09;;;;;;;;;;;;;;;;;;4993731;28;19925;-74
2022/01/07 04:27:36;;;;;;;;;;;;;;;;;;4992555;28;19926;-76
2022/01/07 04:30:03;;;;;;;;;;;;;;;;;;4992702;28;20020;-75
2022/01/07 04:32:30;;;;;;;;;;;;;;;;;;4990125;28;20008;-76
2022/01/07 04:34:56;;;;;;;;;;;;;;;;;;4987036;28;20036;-76
2022/01/07 04:37:23;;;;;;;;;;;;;;;;;;4990856;28;19926;-75
2022/01/07 04:39:50;;;;;;;;;;;;;;;;;;4991114;28;19926;-74
2022/01/07 04:42:17;;;;;;;;;;;;;;;;;;4991555;28;19933;-74
2022/01/07 04:44:44;;;;;;;;;;;;;;;;;;4992033;28;20012;-73
2022/01/07 04:47:11;;;;;;;;;;;;;;;;;;4990619;28;19934;-74
2022/01/07 04:49:38;;;;;;;;;;;;;;;;;;4993674;28;19929;-74
2022/01/07 04:52:05;;;;;;;;;;;;;;;;;;4989587;28;20316;-74
2022/01/07 04:54:32;;;;;;;;;;;;;;;;;;4990569;28;19926;-74
2022/01/07 04:56:59;;;;;;;;;;;;;;;;;;4989280;28;19940;-74
2022/01/07 04:59:26;;;;;;;;;;;;;;;;;;4991815;28;19934;-75
2022/01/07 05:01:54;;;;;;;;;;;;;;;;;;4987171;28;19933;-75
2022/01/07 05:04:21;;;;;;;;;;;;;;;;;;4991093;28;20516;-74
2022/01/07 05:06:48;;;;;;;;;;;;;;;;;;4987447;28;19926;-73
2022/01/07 05:09:16;;;;;;;;;;;;;;;;;;4992079;28;20304;-74
2022/01/07 05:11:43;;;;;;;;;;;;;;;;;;4989984;28;19926;-74
2022/01/07 05:14:10;;;;;;;;;;;;;;;;;;4993216;28;19932;-75
2022/01/07 05:16:37;;;;;;;;;;;;;;;;;;4991316;28;19926;-72
2022/01/07 05:19:04;;;;;;;;;;;;;;;;;;4991105;28;19926;-73
2022/01/07 05:21:31;;;;;;;;;;;;;;;;;;4990128;28;19925;-74
2022/01/07 05:23:59;;;;;;;;;;;;;;;;;;4990360;28;20391;-74
2022/01/07 05:26:26;;;;;;;;;;;;;;;;;;4990802;28;19926;-73
2022/01/07 05:28:53;;;;;;;;;;;;;;;;;;4992296;28;19948;-74
2022/01/07 05:31:22;;;;;;;;;;;;;;;;;;4993503;28;20312;-74
2022/01/07 05:33:49;;;;;;;;;;;;;;;;;;4991630;28;19932;-74
2022/01/07 05:36:16;;;;;;;;;;;;;;;;;;4994142;28;19952;-75
2022/01/07 05:38:43;;;;;;;;;;;;;;;;;;4992910;28;19926;-74
2022/01/07 05:41:10;;;;;;;;;;;;;;;;;;4992807;28;19925;-75
2022/01/07 05:43:37;;;;;;;;;;;;;;;;;;4989937;28;19930;-74
2022/01/07 05:46:04;;;;;;;;;;;;;;;;;;4989093;28;19926;-74
2022/01/07 05:48:32;;;;;;;;;;;;;;;;;;4995063;28;20016;-74
2022/01/07 05:50:59;;;;;;;;;;;;;;;;;;4988779;28;19926;-75
2022/01/07 05:53:26;;;;;;;;;;;;;;;;;;4990581;28;20021;-72
2022/01/07 05:55:53;;;;;;;;;;;;;;;;;;4990291;28;19926;-74
2022/01/07 05:58:20;;;;;;;;;;;;;;;;;;4991152;28;20328;-74
2022/01/07 06:00:47;;;;;;;;;;;;;;;;;;4987849;28;20285;-75
2022/01/07 06:03:14;;;;;;;;;;;;;;;;;;4991273;28;20349;-75
2022/01/07 06:05:40;;;;;;;;;;;;;;;;;;4991504;28;19932;-75
2022/01/07 06:08:09;;;;;;;;;;;;;;;;;;4993824;28;19934;-74
2022/01/07 06:10:36;;;;;;;;;;;;;;;;;;4987128;28;19926;-75
2022/01/07 06:13:03;;;;;;;;;;;;;;;;;;4990158;28;19926;-75
2022/01/07 06:15:30;;;;;;;;;;;;;;;;;;4994448;28;19929;-75
2022/01/07 06:17:57;;;;;;;;;;;;;;;;;;4990785;28;19925;-75
2022/01/07 06:20:23;;;;;;;;;;;;;;;;;;4988459;28;19926;-75
2022/01/07 06:22:50;;;;;;;;;;;;;;;;;;4987677;28;19926;-75
2022/01/07 06:25:17;;;;;;;;;;;;;;;;;;4990905;28;20008;-75
2022/01/07 06:27:44;;;;;;;;;;;;;;;;;;4988698;28;20013;-74
2022/01/07 06:30:11;;;;;;;;;;;;;;;;;;4986705;28;19930;-73
2022/01/07 06:32:38;;;;;;;;;;;;;;;;;;4991877;28;19926;-77
2022/01/07 06:35:05;;;;;;;;;;;;;;;;;;4988128;28;19933;-73
2022/01/07 06:37:32;;;;;;;;;;;;;;;;;;4992304;28;19925;-74
2022/01/07 06:39:59;;;;;;;;;;;;;;;;;;4979275;28;20296;-72
2022/01/07 06:42:26;;;;;;;;;;;;;;;;;;4984470;28;19937;-74
2022/01/07 06:44:53;;;;;;;;;;;;;;;;;;4980981;28;19931;-74
2022/01/07 06:47:20;;;;;;;;;;;;;;;;;;4982707;28;19934;-74
2022/01/07 06:49:47;;;;;;;;;;;;;;;;;;4985776;28;19949;-73
2022/01/07 06:52:14;;;;;;;;;;;;;;;;;;4978832;28;21143;-75
2022/01/07 06:54:41;;;;;;;;;;;;;;;;;;4986079;28;20281;-73
2022/01/07 06:57:08;;;;;;;;;;;;;;;;;;4989199;28;19933;-74
2022/01/07 06:59:35;;;;;;;;;;;;;;;;;;4989102;28;20017;-73
2022/01/07 07:02:01;;;;;;;;;;;;;;;;;;4978809;28;19926;-74
2022/01/07 07:04:29;;;;;;;;;;;;;;;;;;4984188;28;19964;-74
2022/01/07 07:06:56;;;;;;;;;;;;;;;;;;4984136;28;19957;-74
2022/01/07 07:09:23;;;;;;;;;;;;;;;;;;4981342;28;19930;-75
2022/01/07 07:11:50;;;;;;;;;;;;;;;;;;4989401;28;19930;-74
2022/01/07 07:14:17;;;;;;;;;;;;;;;;;;4984356;28;19933;-74
2022/01/07 07:16:44;;;;;;;;;;;;;;;;;;4988997;28;19926;-73
2022/01/07 07:19:11;;;;;;;;;;;;;;;;;;4987711;28;19929;-75
2022/01/07 07:21:38;;;;;;;;;;;;;;;;;;4987237;28;19925;-74
2022/01/07 07:24:05;;;;;;;;;;;;;;;;;;4985560;28;20498;-75
2022/01/07 07:26:32;;;;;;;;;;;;;;;;;;4984868;28;20012;-75
2022/01/07 07:28:59;;;;;;;;;;;;;;;;;;4984445;28;19932;-74
2022/01/07 07:31:26;;;;;;;;;;;;;;;;;;4990242;28;20012;-74
2022/01/07 07:34:20;;;;;;;;;;;;;;;;;;4989911;28;19948;-74
2022/01/07 07:36:47;;;;;;;;;;;;;;;;;;4982063;28;20050;-74
2022/01/07 07:39:14;;;;;;;;;;;;;;;;;;4983425;28;20016;-73
2022/01/07 07:41:41;;;;;;;;;;;;;;;;;;4985270;28;19926;-73
2022/01/07 07:44:10;;;;;;;;;;;;;;;;;;4988303;28;20308;-73
2022/01/07 07:46:37;;;;;;;;;;;;;;;;;;4980658;28;20053;-72
2022/01/07 07:49:04;;;;;;;;;;;;;;;;;;4981847;28;20009;-74
2022/01/07 07:51:31;;;;;;;;;;;;;;;;;;4984103;28;19957;-73
2022/01/07 07:53:58;;;;;;;;;;;;;;;;;;4985303;28;19932;-74
2022/01/07 07:56:25;;;;;;;;;;;;;;;;;;4987394;28;19932;-74
2022/01/07 07:58:52;;;;;;;;;;;;;;;;;;4981693;28;19926;-72
2022/01/07 08:01:19;;;;;;;;;;;;;;;;;;4982408;28;20013;-75
2022/01/07 08:03:46;;;;;;;;;;;;;;;;;;4987949;28;19981;-75
2022/01/07 08:06:13;;;;;;;;;;;;;;;;;;4981078;28;19934;-75
2022/01/07 08:08:40;;;;;;;;;;;;;;;;;;4985838;28;19933;-76
2022/01/07 08:11:10;;;;;;;;;;;;;;;;;;4985576;28;19925;-75
2022/01/07 08:16:19;;;;;;;;;;;;;;;;;;4986714;28;20079;-74
2022/01/07 08:18:46;;;;;;;;;;;;;;;;;;4984510;28;20448;-74
2022/01/07 08:21:13;;;;;;;;;;;;;;;;;;4982959;28;19960;-75
2022/01/07 08:23:40;;;;;;;;;;;;;;;;;;4984901;28;19934;-75
2022/01/07 08:26:08;;;;;;;;;;;;;;;;;;4984045;28;19952;-74
2022/01/07 08:28:39;;;;;;;;;;;;;;;;;;4983604;28;19934;-75
2022/01/07 08:31:25;;;;;;;;;;;;;;;;;;4985497;28;19936;-74
2022/01/07 08:36:37;;;;;;;;;;;;;;;;;;4986439;28;20292;-74
2022/01/07 08:39:03;;;;;;;;;;;;;;;;;;4984263;28;20288;-74
2022/01/07 08:41:30;;;;;;;;;;;;;;;;;;4988378;28;20311;-74
2022/01/07 08:43:57;;;;;;;;;;;;;;;;;;4987246;28;20399;-75
2022/01/07 08:46:24;;;;;;;;;;;;;;;;;;4985584;28;20399;-74
2022/01/07 08:48:51;;;;;;;;;;;;;;;;;;4988744;28;22086;-75
2022/01/07 08:51:18;;;;;;;;;;;;;;;;;;4985472;28;20677;-75
2022/01/07 08:53:45;;;;;;;;;;;;;;;;;;4987642;28;19926;-76
2022/01/07 08:56:12;;;;;;;;;;;;;;;;;;4987907;28;19988;-75
2022/01/07 08:58:39;;;;;;;;;;;;;;;;;;4990374;28;19981;-76
2022/01/07 09:01:06;;;;;;;;;;;;;;;;;;4993089;28;20444;-74
2022/01/07 09:03:33;;;;;;;;;;;;;;;;;;4995057;28;20479;-76
2022/01/07 09:06:00;;;;;;;;;;;;;;;;;;4998006;28;20369;-74
2022/01/07 09:08:27;;;;;;;;;;;;;;;;;;4993115;28;19994;-75
2022/01/07 09:10:54;;;;;;;;;;;;;;;;;;4995539;28;20004;-76
2022/01/07 09:13:21;;;;;;;;;;;;;;;;;;4991017;28;19925;-75
2022/01/07 09:15:48;;;;;;;;;;;;;;;;;;4991575;28;20020;-75
2022/01/07 09:18:15;;;;;;;;;;;;;;;;;;4986446;28;20021;-75
2022/01/07 09:20:42;;;;;;;;;;;;;;;;;;4989340;28;20016;-75
2022/01/07 09:23:09;;;;;;;;;;;;;;;;;;4991071;28;19961;-74
2022/01/07 09:25:36;;;;;;;;;;;;;;;;;;4993867;28;19937;-76
2022/01/07 09:28:03;;;;;;;;;;;;;;;;;;4994465;28;19925;-75
2022/01/07 09:30:30;;;;;;;;;;;;;;;;;;4987552;28;19930;-75
2022/01/07 09:32:57;;;;;;;;;;;;;;;;;;4988409;28;19926;-73
2022/01/07 09:35:24;;;;;;;;;;;;;;;;;;4989460;28;19941;-73
2022/01/07 09:37:51;;;;;;;;;;;;;;;;;;4990854;28;19933;-74
2022/01/07 09:40:18;;;;;;;;;;;;;;;;;;4990283;28;19934;-75
2022/01/07 09:42:45;;;;;;;;;;;;;;;;;;4990779;28;20024;-74
2022/01/07 09:45:12;;;;;;;;;;;;;;;;;;4994604;28;20381;-74
2022/01/07 09:47:39;;;;;;;;;;;;;;;;;;4985716;28;20086;-74
2022/01/07 09:50:06;;;;;;;;;;;;;;;;;;4984634;28;20020;-73
2022/01/07 09:52:33;;;;;;;;;;;;;;;;;;4990752;28;20024;-74
2022/01/07 09:55:00;;;;;;;;;;;;;;;;;;4987597;28;20314;-74
2022/01/07 09:57:26;;;;;;;;;;;;;;;;;;4984612;28;20403;-75
2022/01/07 09:59:54;;;;;;;;;;;;;;;;;;4986974;28;19936;-75
2022/01/07 10:02:22;;;;;;;;;;;;;;;;;;4986002;28;20025;-74
2022/01/07 10:04:50;;;;;;;;;;;;;;;;;;4988858;28;19942;-74
2022/01/07 10:07:17;;;;;;;;;;;;;;;;;;4985597;28;19930;-75
2022/01/07 10:09:44;;;;;;;;;;;;;;;;;;4987580;28;19969;-75
2022/01/07 10:12:11;;;;;;;;;;;;;;;;;;4984773;28;19930;-74
2022/01/07 10:14:38;;;;;;;;;;;;;;;;;;4987917;28;19934;-73
2022/01/07 10:17:05;;;;;;;;;;;;;;;;;;4986595;28;19953;-75
2022/01/07 10:19:32;;;;;;;;;;;;;;;;;;4988204;28;20028;-75
2022/01/07 10:21:59;;;;;;;;;;;;;;;;;;4985030;28;19930;-74
2022/01/07 10:24:26;;;;;;;;;;;;;;;;;;4986030;28;19926;-74
2022/01/07 10:26:53;;;;;;;;;;;;;;;;;;4981023;28;20304;-74
2022/01/07 10:29:20;;;;;;;;;;;;;;;;;;4987926;28;19934;-74
2022/01/07 10:31:47;;;;;;;;;;;;;;;;;;4991916;28;19933;-74
2022/01/07 10:34:14;;;;;;;;;;;;;;;;;;4984547;28;19926;-75
2022/01/07 10:36:41;;;;;;;;;;;;;;;;;;4984498;28;20016;-75
2022/01/07 10:39:08;;;;;;;;;;;;;;;;;;4988642;28;20022;-75
2022/01/07 10:41:35;;;;;;;;;;;;;;;;;;4988865;28;19949;-74
2022/01/07 10:44:02;;;;;;;;;;;;;;;;;;4986298;28;19926;-74
2022/01/07 10:46:31;;;;;;;;;;;;;;;;;;4986451;28;19944;-75
2022/01/07 10:48:58;;;;;;;;;;;;;;;;;;4988898;28;19934;-75
2022/01/07 10:51:25;;;;;;;;;;;;;;;;;;4988698;28;20352;-74
2022/01/07 10:53:52;;;;;;;;;;;;;;;;;;4992997;28;19934;-74
2022/01/07 10:56:20;;;;;;;;;;;;;;;;;;4989385;28;20316;-75
2022/01/07 10:58:47;;;;;;;;;;;;;;;;;;4986595;28;19930;-74
2022/01/07 11:01:14;;;;;;;;;;;;;;;;;;4987453;28;20029;-74
2022/01/07 11:03:41;;;;;;;;;;;;;;;;;;4988175;28;20482;-74
2022/01/07 11:06:08;;;;;;;;;;;;;;;;;;4986765;28;19930;-75
2022/01/07 11:08:35;;;;;;;;;;;;;;;;;;4985728;28;19937;-75
2022/01/07 11:11:04;;;;;;;;;;;;;;;;;;4984787;28;19926;-74
2022/01/07 11:13:31;;;;;;;;;;;;;;;;;;4987440;28;19969;-74
2022/01/07 11:15:58;;;;;;;;;;;;;;;;;;4983351;28;20292;-75
2022/01/07 11:18:25;;;;;;;;;;;;;;;;;;4989029;28;19926;-75
2022/01/07 11:20:52;;;;;;;;;;;;;;;;;;4981965;28;20472;-75
2022/01/07 11:23:19;;;;;;;;;;;;;;;;;;4985860;28;19929;-75
2022/01/07 11:25:46;;;;;;;;;;;;;;;;;;4986929;28;19933;-75
2022/01/07 11:28:13;;;;;;;;;;;;;;;;;;4986059;28;19933;-75
2022/01/07 11:30:40;;;;;;;;;;;;;;;;;;4987591;28;19926;-75
2022/01/07 11:33:07;;;;;;;;;;;;;;;;;;4988272;28;19926;-75
2022/01/07 11:35:34;;;;;;;;;;;;;;;;;;4988303;28;19930;-74
2022/01/07 11:38:01;;;;;;;;;;;;;;;;;;4986188;28;19961;-76
2022/01/07 11:40:28;;;;;;;;;;;;;;;;;;4987785;28;19933;-75
2022/01/07 11:42:55;;;;;;;;;;;;;;;;;;4988502;28;20024;-75
2022/01/07 11:45:23;;;;;;;;;;;;;;;;;;4983745;28;19948;-74
2022/01/07 11:47:50;;;;;;;;;;;;;;;;;;4986979;28;19933;-74
2022/01/07 11:50:16;;;;;;;;;;;;;;;;;;4983296;28;20297;-74
2022/01/07 11:52:43;;;;;;;;;;;;;;;;;;4988995;28;20443;-75
2022/01/07 11:55:10;;;;;;;;;;;;;;;;;;4986321;28;19926;-72
2022/01/07 11:57:37;;;;;;;;;;;;;;;;;;4986559;28;20071;-73
2022/01/07 12:00:04;;;;;;;;;;;;;;;;;;4985222;28;19969;-72
2022/01/07 12:02:31;;;;;;;;;;;;;;;;;;4985206;28;20012;-75
2022/01/07 12:04:58;;;;;;;;;;;;;;;;;;4988515;28;19926;-73
2022/01/07 12:07:25;;;;;;;;;;;;;;;;;;4990592;28;20024;-74
2022/01/07 12:09:52;;;;;;;;;;;;;;;;;;4988924;28;19934;-73
2022/01/07 12:12:20;;;;;;;;;;;;;;;;;;4987708;28;19926;-73
2022/01/07 12:14:51;;;;;;;;;;;;;;;;;;4990010;28;20071;-75
2022/01/07 12:17:18;;;;;;;;;;;;;;;;;;4988921;28;19984;-74
2022/01/07 12:19:46;;;;;;;;;;;;;;;;;;4992350;28;19930;-72
2022/01/07 12:22:16;;;;;;;;;;;;;;;;;;4992421;28;19929;-72
2022/01/07 12:24:43;;;;;;;;;;;;;;;;;;4991797;28;19930;-73
2022/01/07 12:27:10;;;;;;;;;;;;;;;;;;4994658;28;20027;-76
2022/01/07 12:29:37;;;;;;;;;;;;;;;;;;4996807;28;19976;-73
2022/01/07 12:32:05;;;;;;;;;;;;;;;;;;4993306;28;19932;-74
2022/01/07 12:34:32;;;;;;;;;;;;;;;;;;4991394;28;20012;-73
2022/01/07 12:36:58;;;;;;;;;;;;;;;;;;4989601;28;19934;-72
2022/01/07 12:39:26;;;;;;;;;;;;;;;;;;4992058;28;20025;-75
2022/01/07 12:41:54;;;;;;;;;;;;;;;;;;4988657;28;19957;-73
2022/01/07 12:44:21;;;;;;;;;;;;;;;;;;4988741;28;19934;-74
2022/01/07 12:46:48;;;;;;;;;;;;;;;;;;4987603;28;19940;-74
2022/01/07 12:49:14;;;;;;;;;;;;;;;;;;4995299;28;19930;-74
2022/01/07 12:51:41;;;;;;;;;;;;;;;;;;4990314;28;19926;-73
2022/01/07 12:54:09;;;;;;;;;;;;;;;;;;4984221;28;19993;-74
2022/01/07 12:56:36;;;;;;;;;;;;;;;;;;4987136;28;19926;-74
2022/01/07 12:59:03;;;;;;;;;;;;;;;;;;4987498;28;19938;-72
2022/01/07 13:01:30;;;;;;;;;;;;;;;;;;4987779;28;20056;-73
2022/01/07 13:03:57;;;;;;;;;;;;;;;;;;4985259;28;20381;-75
2022/01/07 13:06:24;;;;;;;;;;;;;;;;;;4983851;28;20033;-73
2022/01/07 13:08:51;;;;;;;;;;;;;;;;;;4991992;28;19944;-73
2022/01/07 13:11:18;;;;;;;;;;;;;;;;;;4986831;28;20031;-73
2022/01/07 13:13:45;;;;;;;;;;;;;;;;;;4989562;28;19972;-74
2022/01/07 13:16:12;;;;;;;;;;;;;;;;;;4985459;28;19933;-72
2022/01/07 13:18:40;;;;;;;;;;;;;;;;;;4989070;28;19926;-72
2022/01/07 13:21:07;;;;;;;;;;;;;;;;;;4985421;28;19985;-73
2022/01/07 13:23:34;;;;;;;;;;;;;;;;;;4989066;28;19926;-74
2022/01/07 13:26:00;;;;;;;;;;;;;;;;;;4986106;28;20285;-73
2022/01/07 13:28:30;;;;;;;;;;;;;;;;;;4987196;28;20412;-73
2022/01/07 13:30:57;;;;;;;;;;;;;;;;;;4989671;28;20003;-73
2022/01/07 13:33:24;;;;;;;;;;;;;;;;;;4991538;28;20384;-74
2022/01/07 13:35:51;;;;;;;;;;;;;;;;;;4988503;28;20452;-74
2022/01/07 13:38:18;;;;;;;;;;;;;;;;;;4987442;28;19926;-73
2022/01/07 13:40:45;;;;;;;;;;;;;;;;;;4986886;28;19930;-75
2022/01/07 13:43:12;;;;;;;;;;;;;;;;;;4989621;28;20274;-75
2022/01/07 13:45:39;;;;;;;;;;;;;;;;;;4986533;28;20004;-73
2022/01/07 13:48:07;;;;;;;;;;;;;;;;;;4991314;28;19926;-75
2022/01/07 13:50:34;;;;;;;;;;;;;;;;;;4984108;28;20393;-74
2022/01/07 13:53:01;;;;;;;;;;;;;;;;;;4991153;28;19926;-73
2022/01/07 13:55:28;;;;;;;;;;;;;;;;;;4983496;28;19944;-74
2022/01/07 13:57:56;;;;;;;;;;;;;;;;;;4987710;28;20348;-72
2022/01/07 14:00:23;;;;;;;;;;;;;;;;;;4985842;28;19938;-72
2022/01/07 14:02:50;;;;;;;;;;;;;;;;;;4986111;28;20397;-71
2022/01/07 14:05:17;;;;;;;;;;;;;;;;;;4988746;28;19941;-72
2022/01/07 14:07:44;;;;;;;;;;;;;;;;;;4994034;28;19964;-71
2022/01/07 14:10:11;;;;;;;;;;;;;;;;;;4991475;28;19934;-73
2022/01/07 14:12:38;;;;;;;;;;;;;;;;;;4989350;28;19984;-73
2022/01/07 14:15:05;;;;;;;;;;;;;;;;;;4989538;28;20352;-72
2022/01/07 14:17:32;;;;;;;;;;;;;;;;;;4987389;28;20032;-73
2022/01/07 14:19:59;;;;;;;;;;;;;;;;;;4989247;28;20012;-73
2022/01/07 14:22:26;;;;;;;;;;;;;;;;;;4985043;28;19934;-73
2022/01/07 14:24:53;;;;;;;;;;;;;;;;;;4985004;28;20021;-74
2022/01/07 14:27:20;;;;;;;;;;;;;;;;;;4986226;28;20013;-72
2022/01/07 14:29:48;;;;;;;;;;;;;;;;;;4990839;28;20368;-71
2022/01/07 14:32:15;;;;;;;;;;;;;;;;;;4990057;28;20036;-73
2022/01/07 14:34:42;;;;;;;;;;;;;;;;;;4990122;28;19965;-73
2022/01/07 14:37:09;;;;;;;;;;;;;;;;;;4988089;28;20144;-73
2022/01/07 14:39:36;;;;;;;;;;;;;;;;;;4982800;28;19934;-72
2022/01/07 14:42:03;;;;;;;;;;;;;;;;;;4985583;28;19933;-72
2022/01/07 14:44:30;;;;;;;;;;;;;;;;;;4982051;28;19933;-73
2022/01/07 14:46:57;;;;;;;;;;;;;;;;;;4981215;28;20346;-74
2022/01/07 14:49:24;;;;;;;;;;;;;;;;;;4985288;28;20289;-72
2022/01/07 14:51:51;;;;;;;;;;;;;;;;;;4983401;28;19932;-72
2022/01/07 14:54:18;;;;;;;;;;;;;;;;;;4984017;28;20374;-73
2022/01/07 14:56:45;;;;;;;;;;;;;;;;;;4982926;28;19926;-73
2022/01/07 14:59:12;;;;;;;;;;;;;;;;;;4985620;28;19995;-74
2022/01/07 15:01:40;;;;;;;;;;;;;;;;;;4986284;28;19985;-73
2022/01/07 15:04:07;;;;;;;;;;;;;;;;;;4983728;28;19949;-74
2022/01/07 15:06:34;;;;;;;;;;;;;;;;;;4983043;28;19933;-73
2022/01/07 15:09:01;;;;;;;;;;;;;;;;;;4990593;28;19957;-73
2022/01/07 15:11:28;;;;;;;;;;;;;;;;;;4985788;28;20028;-74
2022/01/07 15:13:55;;;;;;;;;;;;;;;;;;4982853;28;19944;-74
2022/01/07 15:16:40;;;;;;;;;;;;;;;;;;4983500;28;19926;-74
2022/01/07 15:19:07;;;;;;;;;;;;;;;;;;4986194;28;19957;-75
2022/01/07 15:21:36;;;;;;;;;;;;;;;;;;5001690;23;20297;-75
2022/01/07 15:24:03;;;;;;;;;;;;;;;;;;5002547;28;20384;-74
2022/01/07 15:26:30;;;;;;;;;;;;;;;;;;5003907;28;20008;-72
2022/01/07 15:28:58;;;;;;;;;;;;;;;;;;5006847;28;19962;-73
2022/01/07 15:31:25;;;;;;;;;;;;;;;;;;5000644;28;19941;-73
2022/01/07 15:33:52;;;;;;;;;;;;;;;;;;5002991;28;19933;-72
2022/01/07 15:36:19;;;;;;;;;;;;;;;;;;5003599;28;19929;-72
2022/01/07 15:38:46;;;;;;;;;;;;;;;;;;5000935;28;20287;-73
2022/01/07 15:41:13;;;;;;;;;;;;;;;;;;5006841;28;20314;-70
2022/01/07 15:43:39;;;;;;;;;;;;;;;;;;5003784;28;20531;-73
2022/01/07 15:46:06;;;;;;;;;;;;;;;;;;5007534;28;20398;-72
2022/01/07 15:48:33;;;;;;;;;;;;;;;;;;5001762;28;19937;-72
2022/01/07 15:51:00;;;;;;;;;;;;;;;;;;5004005;28;19925;-71
2022/01/07 15:53:27;;;;;;;;;;;;;;;;;;5002045;28;19926;-72
2022/01/07 15:55:55;;;;;;;;;;;;;;;;;;5005963;28;20312;-71
2022/01/07 15:58:22;;;;;;;;;;;;;;;;;;5004682;28;19936;-72
2022/01/07 16:00:49;;;;;;;;;;;;;;;;;;5005257;28;19933;-72
2022/01/07 16:03:16;;;;;;;;;;;;;;;;;;5006194;28;19926;-74
2022/01/07 16:05:43;;;;;;;;;;;;;;;;;;5007338;28;19940;-76
2022/01/07 16:08:10;;;;;;;;;;;;;;;;;;5009940;28;19933;-75
2022/01/07 16:10:37;;;;;;;;;;;;;;;;;;5008613;28;19972;-73
2022/01/07 16:13:04;;;;;;;;;;;;;;;;;;5006556;28;19926;-74
2022/01/07 16:15:31;;;;;;;;;;;;;;;;;;5004274;28;20016;-73
2022/01/07 16:17:58;;;;;;;;;;;;;;;;;;5005523;28;20388;-74
2022/01/07 16:20:25;;;;;;;;;;;;;;;;;;5008274;28;19930;-74
2022/01/07 16:22:52;;;;;;;;;;;;;;;;;;5004637;28;20016;-74
2022/01/07 16:25:19;;;;;;;;;;;;;;;;;;5003049;28;19926;-74
2022/01/07 16:27:46;;;;;;;;;;;;;;;;;;5003601;28;19929;-73
2022/01/07 16:30:13;;;;;;;;;;;;;;;;;;5003863;28;19926;-74
2022/01/07 16:32:40;;;;;;;;;;;;;;;;;;5003440;28;19980;-72
2022/01/07 16:35:08;;;;;;;;;;;;;;;;;;5002763;28;20012;-73
2022/01/07 16:37:35;;;;;;;;;;;;;;;;;;5002209;28;20328;-73
2022/01/07 16:40:02;;;;;;;;;;;;;;;;;;5001584;28;20535;-74
2022/01/07 16:42:29;;;;;;;;;;;;;;;;;;5005477;28;19925;-78
2022/01/07 16:44:56;;;;;;;;;;;;;;;;;;5001649;28;19943;-77
2022/01/07 16:47:24;;;;;;;;;;;;;;;;;;5003811;28;19931;-79
2022/01/07 16:49:51;;;;;;;;;;;;;;;;;;5005978;28;19996;-75